createdAt,value
2018-08-18T00:02:21.021Z,0.80
2018-08-18T00:04:48.801Z,0.77
2018-08-18T00:07:16.540Z,0.87
2018-08-18T00:09:44.264Z,0.60
2018-08-18T00:12:16.426Z,0.77
2018-08-18T00:14:44.097Z,0.50
2018-08-18T00:17:11.808Z,0.70
2018-08-18T00:19:39.499Z,1.13
2018-08-18T00:22:07.171Z,0.70
2018-08-18T00:24:37.454Z,0.80
2018-08-18T00:27:05.147Z,0.80
2018-08-18T00:29:32.824Z,0.77
2018-08-18T00:32:00.521Z,0.80
2018-08-18T00:34:28.191Z,0.90
2018-08-18T00:36:55.959Z,0.67
2018-08-18T00:39:23.884Z,1.10
2018-08-18T00:41:51.670Z,0.87
2018-08-18T00:44:19.337Z,0.80
2018-08-18T00:46:46.995Z,0.67
2018-08-18T00:49:14.670Z,0.80
2018-08-18T00:51:42.349Z,0.60
2018-08-18T00:54:10.052Z,0.50
2018-08-18T00:56:39.901Z,0.87
2018-08-18T00:59:07.653Z,0.70
2018-08-18T01:01:35.357Z,0.70
2018-08-18T01:04:07.713Z,0.63
2018-08-18T01:06:37.216Z,0.50
2018-08-18T01:09:08.393Z,0.80
2018-08-18T01:11:36.211Z,0.80
2018-08-18T01:14:12.907Z,0.80
2018-08-18T01:16:46.019Z,0.67
2018-08-18T01:19:13.675Z,0.80
2018-08-18T01:21:45.865Z,0.70
2018-08-18T01:24:13.575Z,0.37
2018-08-18T01:26:41.283Z,0.70
2018-08-18T01:29:15.134Z,0.50
2018-08-18T01:31:42.812Z,0.60
2018-08-18T01:34:10.562Z,0.70
2018-08-18T01:36:38.226Z,0.70
2018-08-18T01:39:08.721Z,0.50
2018-08-18T01:41:36.665Z,0.63
2018-08-18T01:44:24.481Z,0.50
2018-08-18T01:46:53.149Z,0.70
2018-08-18T01:49:38.310Z,0.70
2018-08-18T01:52:13.295Z,0.80
2018-08-18T01:54:41.307Z,0.87
2018-08-18T01:57:09.696Z,0.53
2018-08-18T01:59:41.589Z,0.90
2018-08-18T02:02:11.351Z,0.60
2018-08-18T02:04:39.052Z,0.80
2018-08-18T02:07:15.077Z,0.70
2018-08-18T02:09:42.743Z,0.80
2018-08-18T02:12:10.406Z,0.90
2018-08-18T02:14:38.110Z,0.50
2018-08-18T02:17:15.601Z,0.50
2018-08-18T02:19:43.285Z,0.60
2018-08-18T02:22:10.968Z,1.00
2018-08-18T02:24:38.621Z,0.50
2018-08-18T02:27:06.301Z,0.50
2018-08-18T02:29:33.957Z,0.57
2018-08-18T02:32:01.626Z,0.47
2018-08-18T02:34:29.297Z,0.53
2018-08-18T02:36:57.017Z,0.50
2018-08-18T02:39:24.693Z,0.90
2018-08-18T02:41:59.185Z,0.70
2018-08-18T02:44:26.846Z,0.80
2018-08-18T02:46:54.664Z,0.40
2018-08-18T02:49:22.408Z,0.63
2018-08-18T02:51:50.069Z,0.50
2018-08-18T02:54:17.851Z,0.63
2018-08-18T02:56:45.501Z,0.33
2018-08-18T02:59:13.156Z,0.67
2018-08-18T03:01:42.203Z,0.50
2018-08-18T03:04:11.610Z,0.60
2018-08-18T03:06:39.686Z,0.40
2018-08-18T03:09:08.810Z,0.40
2018-08-18T03:11:38.832Z,0.63
2018-08-18T03:14:06.546Z,0.70
2018-08-18T03:16:35.394Z,0.53
2018-08-18T03:19:03.118Z,0.40
2018-08-18T03:21:36.305Z,0.70
2018-08-18T03:24:14.200Z,0.50
2018-08-18T03:26:47.319Z,0.40
2018-08-18T03:29:15.600Z,0.83
2018-08-18T03:31:43.682Z,0.60
2018-08-18T03:34:11.859Z,0.50
2018-08-18T03:36:42.293Z,0.97
2018-08-18T03:39:16.344Z,0.70
2018-08-18T03:41:44.283Z,0.60
2018-08-18T03:44:11.935Z,0.40
2018-08-18T03:46:39.630Z,0.73
2018-08-18T03:49:07.457Z,0.50
2018-08-18T03:51:40.654Z,0.30
2018-08-18T03:54:08.352Z,0.60
2018-08-18T03:56:36.016Z,0.80
2018-08-18T03:59:03.802Z,0.70
2018-08-18T04:01:40.321Z,0.67
2018-08-18T04:04:09.250Z,0.47
2018-08-18T04:06:38.233Z,0.73
2018-08-18T04:09:17.446Z,0.50
2018-08-18T04:11:45.104Z,0.53
2018-08-18T04:14:12.933Z,0.80
2018-08-18T04:16:45.667Z,0.50
2018-08-18T04:19:15.128Z,0.50
2018-08-18T04:21:42.821Z,0.60
2018-08-18T04:24:10.694Z,0.60
2018-08-18T04:26:38.341Z,0.60
2018-08-18T04:29:06.106Z,0.70
2018-08-18T04:31:34.745Z,0.50
2018-08-18T04:34:03.391Z,0.40
2018-08-18T04:36:31.523Z,0.50
2018-08-18T04:38:59.286Z,0.70
2018-08-18T04:41:27.031Z,0.40
2018-08-18T04:43:54.907Z,0.50
2018-08-18T04:46:22.594Z,0.60
2018-08-18T04:48:50.266Z,0.80
2018-08-18T04:51:17.938Z,0.60
2018-08-18T04:53:45.631Z,0.50
2018-08-18T04:56:13.339Z,0.50
2018-08-18T04:58:41.158Z,0.57
2018-08-18T05:01:08.850Z,0.90
2018-08-18T05:03:51.094Z,0.50
2018-08-18T05:06:23.390Z,0.67
2018-08-18T05:08:51.163Z,0.50
2018-08-18T05:11:18.773Z,0.60
2018-08-18T05:13:46.413Z,0.40
2018-08-18T05:16:14.078Z,0.50
2018-08-18T05:18:41.735Z,0.93
2018-08-18T05:21:09.453Z,0.70
2018-08-18T05:23:37.160Z,0.80
2018-08-18T05:26:04.824Z,0.70
2018-08-18T05:28:32.479Z,0.60
2018-08-18T05:31:00.158Z,0.67
2018-08-18T05:33:27.812Z,0.50
2018-08-18T05:35:55.497Z,0.77
2018-08-18T05:38:23.179Z,0.80
2018-08-18T05:40:50.846Z,1.03
2018-08-18T05:43:18.526Z,0.60
2018-08-18T05:45:46.191Z,0.73
2018-08-18T05:48:13.867Z,0.70
2018-08-18T05:50:41.556Z,0.80
2018-08-18T05:53:18.241Z,0.60
2018-08-18T05:55:46.621Z,0.60
2018-08-18T05:58:14.387Z,0.60
2018-08-18T06:00:42.125Z,0.63
2018-08-18T06:03:10.102Z,1.10
2018-08-18T06:05:37.848Z,0.77
2018-08-18T06:08:06.084Z,0.93
2018-08-18T06:10:33.741Z,0.70
2018-08-18T06:13:06.940Z,0.73
2018-08-18T06:15:34.656Z,0.90
2018-08-18T06:18:02.363Z,0.60
2018-08-18T06:20:30.025Z,0.80
2018-08-18T06:22:57.672Z,0.70
2018-08-18T06:25:25.338Z,0.50
2018-08-18T06:27:53.012Z,0.70
2018-08-18T06:30:20.753Z,0.70
2018-08-18T06:32:48.441Z,0.80
2018-08-18T06:35:16.109Z,0.83
2018-08-18T06:37:48.259Z,0.80
2018-08-18T06:40:15.944Z,0.80
2018-08-18T06:42:44.782Z,0.80
2018-08-18T06:45:14.628Z,0.77
2018-08-18T06:47:43.046Z,0.80
2018-08-18T06:50:12.698Z,0.80
2018-08-18T06:52:40.905Z,0.67
2018-08-18T06:55:13.537Z,0.67
2018-08-18T06:57:45.245Z,0.80
2018-08-18T07:00:14.673Z,0.90
2018-08-18T07:02:42.390Z,0.73
2018-08-18T07:05:12.365Z,0.83
2018-08-18T07:07:40.636Z,0.80
2018-08-18T07:10:36.196Z,0.87
2018-08-18T07:13:06.219Z,0.50
2018-08-18T07:15:35.226Z,0.70
2018-08-18T07:18:03.095Z,0.70
2018-08-18T07:20:30.854Z,0.73
2018-08-18T07:22:58.649Z,0.80
2018-08-18T07:25:26.319Z,0.97
2018-08-18T07:27:59.793Z,0.50
2018-08-18T07:30:28.533Z,1.33
2018-08-18T07:32:56.377Z,0.90
2018-08-18T07:35:24.093Z,0.80
2018-08-18T07:37:51.917Z,1.13
2018-08-18T07:40:30.144Z,1.10
2018-08-18T07:43:05.163Z,0.80
2018-08-18T07:45:33.498Z,1.10
2018-08-18T07:48:01.429Z,0.50
2018-08-18T07:50:29.050Z,0.60
2018-08-18T07:52:57.119Z,0.77
2018-08-18T07:55:24.799Z,0.93
2018-08-18T07:57:57.068Z,0.73
2018-08-18T08:00:33.529Z,0.97
2018-08-18T08:03:01.560Z,0.90
2018-08-18T08:05:29.685Z,0.77
2018-08-18T08:07:57.461Z,0.70
2018-08-18T08:10:25.274Z,0.80
2018-08-18T08:12:52.924Z,0.60
2018-08-18T08:15:20.610Z,0.73
2018-08-18T08:17:48.311Z,0.77
2018-08-18T08:20:16.807Z,0.70
2018-08-18T08:22:45.280Z,0.83
2018-08-18T08:25:12.992Z,0.97
2018-08-18T08:27:40.883Z,1.40
2018-08-18T08:30:10.447Z,0.63
2018-08-18T08:32:38.306Z,0.80
2018-08-18T08:35:06.613Z,0.80
2018-08-18T08:37:34.278Z,1.10
2018-08-18T08:40:01.961Z,0.80
2018-08-18T08:42:29.657Z,0.80
2018-08-18T08:44:57.454Z,0.90
2018-08-18T08:47:25.387Z,0.90
2018-08-18T08:49:53.092Z,0.50
2018-08-18T08:52:20.864Z,0.47
2018-08-18T08:54:48.609Z,0.70
2018-08-18T08:57:16.342Z,0.57
2018-08-18T08:59:44.018Z,0.40
2018-08-18T09:02:13.171Z,0.57
2018-08-18T09:04:40.969Z,0.50
2018-08-18T09:07:10.128Z,0.60
2018-08-18T09:09:37.864Z,1.40
2018-08-18T09:12:05.844Z,0.97
2018-08-18T09:14:33.662Z,1.00
2018-08-18T09:17:01.484Z,1.30
2018-08-18T09:19:29.212Z,0.70
2018-08-18T09:22:00.080Z,0.93
2018-08-18T09:24:29.872Z,0.83
2018-08-18T09:26:58.938Z,0.90
2018-08-18T09:29:27.781Z,0.70
2018-08-18T09:31:57.340Z,0.80
2018-08-18T09:34:25.073Z,0.80
2018-08-18T09:36:52.794Z,1.00
2018-08-18T09:39:36.948Z,0.80
2018-08-18T09:42:08.065Z,0.77
2018-08-18T09:44:41.826Z,0.80
2018-08-18T09:47:09.556Z,0.87
2018-08-18T09:49:37.233Z,0.93
2018-08-18T09:52:06.132Z,0.70
2018-08-18T09:54:33.833Z,1.00
2018-08-18T09:57:01.603Z,1.23
2018-08-18T09:59:29.679Z,1.03
2018-08-18T10:01:57.425Z,0.73
2018-08-18T10:04:25.185Z,0.80
2018-08-18T10:06:53.706Z,2.10
2018-08-18T10:09:21.521Z,0.60
2018-08-18T10:11:49.194Z,0.70
2018-08-18T10:14:17.062Z,1.10
2018-08-18T10:16:44.777Z,0.93
2018-08-18T10:19:12.472Z,1.00
2018-08-18T10:21:40.145Z,1.00
2018-08-18T10:24:08.494Z,1.20
2018-08-18T10:26:36.151Z,1.10
2018-08-18T10:29:16.379Z,0.80
2018-08-18T10:31:48.765Z,1.00
2018-08-18T10:34:18.742Z,1.10
2018-08-18T10:36:49.769Z,1.10
2018-08-18T10:39:17.521Z,0.73
2018-08-18T10:41:56.585Z,0.90
2018-08-18T10:44:24.978Z,0.73
2018-08-18T10:47:03.970Z,1.00
2018-08-18T10:49:43.365Z,0.90
2018-08-18T10:52:22.238Z,1.90
2018-08-18T10:54:49.904Z,0.80
2018-08-18T10:57:28.695Z,0.80
2018-08-18T10:59:56.396Z,0.80
2018-08-18T11:02:29.812Z,1.23
2018-08-18T11:04:57.505Z,0.90
2018-08-18T11:07:25.158Z,0.87
2018-08-18T11:09:52.812Z,0.80
2018-08-18T11:12:20.491Z,0.93
2018-08-18T11:14:53.516Z,1.00
2018-08-18T11:17:21.168Z,0.77
2018-08-18T11:19:48.847Z,0.60
2018-08-18T11:22:54.092Z,0.70
2018-08-18T11:25:25.873Z,1.03
2018-08-18T11:27:54.453Z,0.93
2018-08-18T11:30:22.427Z,0.80
2018-08-18T11:32:51.417Z,1.00
2018-08-18T11:35:19.092Z,0.93
2018-08-18T11:37:53.457Z,0.93
2018-08-18T11:40:21.901Z,0.57
2018-08-18T11:42:49.987Z,0.73
2018-08-18T11:45:18.713Z,0.93
2018-08-18T11:48:00.053Z,1.03
2018-08-18T11:50:28.244Z,0.60
2018-08-18T11:52:56.081Z,1.07
2018-08-18T11:55:23.985Z,0.50
2018-08-18T11:57:53.049Z,1.10
2018-08-18T12:00:20.887Z,0.60
2018-08-18T12:02:49.797Z,0.60
2018-08-18T12:05:17.474Z,1.00
2018-08-18T12:07:45.137Z,0.80
2018-08-18T12:10:12.809Z,0.63
2018-08-18T12:12:40.487Z,0.60
2018-08-18T12:15:08.179Z,0.50
2018-08-18T12:17:40.929Z,0.70
2018-08-18T12:20:08.606Z,0.63
2018-08-18T12:22:36.297Z,1.00
2018-08-18T12:25:04.113Z,0.60
2018-08-18T12:27:31.767Z,0.53
2018-08-18T12:29:59.496Z,0.63
2018-08-18T12:32:28.187Z,0.83
2018-08-18T12:34:57.316Z,0.77
2018-08-18T12:37:26.574Z,0.57
2018-08-18T12:39:55.197Z,0.70
2018-08-18T12:42:26.209Z,0.43
2018-08-18T12:44:54.337Z,0.60
2018-08-18T12:47:22.017Z,0.63
2018-08-18T12:49:50.178Z,0.60
2018-08-18T12:52:17.793Z,0.67
2018-08-18T12:54:45.478Z,1.00
2018-08-18T12:57:13.932Z,0.70
2018-08-18T12:59:41.670Z,0.53
2018-08-18T13:02:09.448Z,0.93
2018-08-18T13:04:37.404Z,0.60
2018-08-18T13:07:05.157Z,0.70
2018-08-18T13:09:32.808Z,0.60
2018-08-18T13:12:01.476Z,0.60
2018-08-18T13:14:30.443Z,0.73
2018-08-18T13:16:58.072Z,0.63
2018-08-18T13:19:27.678Z,0.80
2018-08-18T13:21:55.360Z,0.70
2018-08-18T13:24:23.039Z,0.83
2018-08-18T13:26:50.797Z,0.70
2018-08-18T13:29:18.466Z,0.83
2018-08-18T13:31:46.162Z,0.80
2018-08-18T13:34:16.827Z,0.60
2018-08-18T13:36:45.499Z,0.73
2018-08-18T13:39:14.490Z,0.67
2018-08-18T13:41:43.027Z,0.50
2018-08-18T13:44:10.705Z,0.80
2018-08-18T13:46:44.599Z,0.50
2018-08-18T13:49:12.291Z,0.77
2018-08-18T13:51:40.009Z,0.90
2018-08-18T13:54:07.783Z,0.87
2018-08-18T13:56:35.513Z,0.83
2018-08-18T13:59:03.309Z,0.77
2018-08-18T14:01:35.642Z,0.80
2018-08-18T14:04:03.774Z,1.00
2018-08-18T14:06:37.697Z,0.50
2018-08-18T14:09:06.203Z,0.70
2018-08-18T14:11:33.877Z,0.70
2018-08-18T14:14:01.640Z,0.70
2018-08-18T14:16:30.329Z,0.80
2018-08-18T14:18:58.146Z,0.70
2018-08-18T14:21:25.817Z,0.80
2018-08-18T14:23:53.467Z,0.70
2018-08-18T14:26:21.140Z,0.73
2018-08-18T14:28:48.804Z,0.90
2018-08-18T14:31:16.561Z,0.77
2018-08-18T14:33:44.218Z,0.57
2018-08-18T14:36:13.946Z,0.60
2018-08-18T14:38:43.230Z,0.70
2018-08-18T14:41:11.282Z,0.83
2018-08-18T14:43:40.117Z,0.70
2018-08-18T14:46:10.338Z,0.70
2018-08-18T14:48:38.230Z,0.93
2018-08-18T14:51:06.191Z,0.87
2018-08-18T14:53:33.952Z,0.77
2018-08-18T14:56:01.617Z,0.77
2018-08-18T14:58:33.261Z,0.67
2018-08-18T15:01:06.554Z,0.83
2018-08-18T15:03:34.630Z,0.90
2018-08-18T15:06:02.309Z,1.10
2018-08-18T15:08:30.012Z,0.70
2018-08-18T15:10:57.672Z,0.50
2018-08-18T15:13:25.321Z,0.67
2018-08-18T15:15:53.050Z,0.70
2018-08-18T15:18:20.832Z,0.83
2018-08-18T15:20:48.527Z,0.60
2018-08-18T15:23:17.117Z,0.80
2018-08-18T15:25:45.701Z,0.70
2018-08-18T15:28:14.537Z,0.73
2018-08-18T15:30:44.515Z,0.80
2018-08-18T15:33:16.414Z,0.70
2018-08-18T15:35:44.173Z,1.20
2018-08-18T15:38:12.121Z,1.00
2018-08-18T15:40:40.149Z,0.70
2018-08-18T15:43:07.953Z,0.70
2018-08-18T15:45:59.397Z,1.27
2018-08-18T15:48:27.227Z,0.73
2018-08-18T15:50:54.977Z,0.67
2018-08-18T15:53:56.578Z,0.70
2018-08-18T15:56:25.219Z,0.83
2018-08-18T15:58:53.920Z,0.90
2018-08-18T16:01:23.781Z,0.70
2018-08-18T16:03:52.035Z,1.23
2018-08-18T16:06:19.755Z,0.90
2018-08-18T16:08:47.491Z,0.90
2018-08-18T16:11:15.753Z,0.90
2018-08-18T16:13:43.561Z,0.90
2018-08-18T16:16:11.281Z,0.87
2018-08-18T16:18:38.966Z,0.80
2018-08-18T16:21:13.163Z,0.93
2018-08-18T16:23:41.693Z,0.60
2018-08-18T16:26:10.317Z,0.90
2018-08-18T16:28:38.725Z,1.00
2018-08-18T16:31:06.737Z,0.73
2018-08-18T16:33:34.701Z,0.83
2018-08-18T16:36:02.463Z,0.90
2018-08-18T16:38:30.475Z,1.03
2018-08-18T16:40:58.177Z,1.10
2018-08-18T16:43:25.885Z,0.90
2018-08-18T16:45:53.557Z,0.83
2018-08-18T16:48:21.297Z,0.80
2018-08-18T16:50:49.025Z,1.10
2018-08-18T16:53:16.715Z,1.00
2018-08-18T16:55:45.471Z,0.83
2018-08-18T16:58:13.290Z,0.90
2018-08-18T17:00:58.379Z,1.37
2018-08-18T17:03:33.513Z,1.40
2018-08-18T17:06:02.510Z,1.10
2018-08-18T17:08:30.594Z,1.30
2018-08-18T17:10:58.619Z,1.20
2018-08-18T17:13:31.045Z,1.07
2018-08-18T17:15:58.788Z,1.03
2018-08-18T17:18:26.517Z,0.93
2018-08-18T17:20:59.121Z,1.37
2018-08-18T17:23:28.365Z,1.13
2018-08-18T17:25:56.029Z,1.10
2018-08-18T17:28:23.715Z,1.37
2018-08-18T17:30:52.167Z,0.90
2018-08-18T17:33:21.829Z,1.10
2018-08-18T17:35:49.838Z,0.97
2018-08-18T17:38:17.565Z,1.10
2018-08-18T17:40:45.520Z,1.23
2018-08-18T17:43:13.224Z,1.20
2018-08-18T17:45:50.333Z,1.30
2018-08-18T17:48:18.080Z,1.20
2018-08-18T17:50:45.805Z,1.20
2018-08-18T17:53:13.512Z,1.27
2018-08-18T17:55:41.346Z,1.70
2018-08-18T17:58:09.030Z,1.57
2018-08-18T18:00:36.889Z,1.30
2018-08-18T18:03:06.769Z,1.60
2018-08-18T18:05:34.622Z,1.80
2018-08-18T18:08:03.605Z,1.10
2018-08-18T18:10:32.709Z,1.30
2018-08-18T18:13:00.497Z,1.27
2018-08-18T18:15:35.575Z,1.20
2018-08-18T18:18:03.498Z,1.27
2018-08-18T18:20:32.358Z,1.50
2018-08-18T18:23:00.249Z,1.50
2018-08-18T18:25:28.138Z,1.30
2018-08-18T18:27:55.856Z,1.40
2018-08-18T18:30:27.208Z,1.30
2018-08-18T18:32:55.222Z,1.20
2018-08-18T18:35:23.713Z,1.43
2018-08-18T18:37:51.828Z,1.30
2018-08-18T18:40:19.547Z,1.27
2018-08-18T18:42:47.359Z,1.60
2018-08-18T18:45:15.140Z,1.40
2018-08-18T18:47:45.014Z,1.23
2018-08-18T18:50:16.511Z,1.40
2018-08-18T18:52:44.401Z,1.50
2018-08-18T18:55:12.126Z,1.67
2018-08-18T18:57:52.545Z,1.80
2018-08-18T19:00:20.250Z,2.00
2018-08-18T19:02:47.987Z,1.80
2018-08-18T19:05:22.362Z,2.00
2018-08-18T19:08:13.921Z,1.43
2018-08-18T19:10:41.908Z,1.63
2018-08-18T19:13:10.058Z,1.80
2018-08-18T19:15:37.769Z,1.90
2018-08-18T19:18:06.143Z,1.23
2018-08-18T19:20:33.867Z,1.10
2018-08-18T19:23:08.959Z,1.40
2018-08-18T19:25:37.860Z,1.53
2018-08-18T19:28:05.637Z,1.20
2018-08-18T19:30:33.967Z,1.67
2018-08-18T19:33:01.889Z,1.17
2018-08-18T19:35:35.105Z,1.50
2018-08-18T19:38:03.892Z,1.20
2018-08-18T19:40:31.842Z,1.50
2018-08-18T19:42:59.583Z,1.50
2018-08-18T19:45:27.258Z,1.40
2018-08-18T19:47:54.925Z,1.20
2018-08-18T19:50:22.657Z,1.53
2018-08-18T19:52:55.954Z,1.47
2018-08-18T19:55:23.618Z,0.90
2018-08-18T19:57:51.274Z,1.00
2018-08-18T20:00:19.982Z,1.00
2018-08-18T20:03:05.398Z,1.20
2018-08-18T20:05:33.095Z,1.20
2018-08-18T20:08:00.785Z,1.07
2018-08-18T20:10:28.517Z,0.90
2018-08-18T20:12:56.183Z,1.00
2018-08-18T20:15:23.855Z,1.30
2018-08-18T20:17:51.506Z,1.00
2018-08-18T20:20:21.573Z,0.87
2018-08-18T20:22:49.339Z,1.00
2018-08-18T20:25:17.022Z,1.10
2018-08-18T20:27:44.668Z,1.00
2018-08-18T20:30:13.166Z,1.33
2018-08-18T20:32:40.823Z,0.90
2018-08-18T20:35:08.585Z,0.93
2018-08-18T20:37:36.364Z,1.17
2018-08-18T20:40:05.441Z,1.40
2018-08-18T20:42:38.948Z,1.20
2018-08-18T20:45:06.805Z,1.53
2018-08-18T20:47:34.505Z,1.10
2018-08-18T20:50:02.174Z,0.80
2018-08-18T20:52:29.835Z,0.97
2018-08-18T20:54:58.246Z,1.10
2018-08-18T20:57:25.933Z,0.70
2018-08-18T20:59:53.611Z,1.00
2018-08-18T21:02:21.292Z,0.87
2018-08-18T21:04:57.317Z,0.97
2018-08-18T21:07:25.249Z,0.60
2018-08-18T21:09:53.789Z,1.20
2018-08-18T21:12:21.510Z,0.93
2018-08-18T21:14:49.169Z,1.20
2018-08-18T21:17:16.838Z,0.80
2018-08-18T21:19:44.508Z,0.97
2018-08-18T21:22:13.389Z,1.20
2018-08-18T21:24:41.094Z,0.97
2018-08-18T21:27:08.749Z,0.80
2018-08-18T21:29:36.413Z,0.90
2018-08-18T21:32:04.238Z,0.83
2018-08-18T21:34:38.443Z,0.97
2018-08-18T21:37:06.457Z,1.00
2018-08-18T21:39:34.164Z,1.40
2018-08-18T21:42:01.896Z,1.00
2018-08-18T21:44:29.579Z,1.23
2018-08-18T21:46:57.265Z,0.97
2018-08-18T21:49:24.930Z,0.87
2018-08-18T21:51:52.658Z,1.00
2018-08-18T21:54:20.302Z,1.00
2018-08-18T21:56:47.979Z,1.00
2018-08-18T21:59:15.624Z,1.20
2018-08-18T22:01:43.450Z,1.07
2018-08-18T22:04:11.125Z,1.10
2018-08-18T22:06:38.882Z,0.97
2018-08-18T22:09:20.193Z,0.97
2018-08-18T22:11:47.935Z,0.70
2018-08-18T22:14:16.601Z,0.80
2018-08-18T22:16:58.985Z,0.90
2018-08-18T22:19:27.921Z,1.13
2018-08-18T22:21:55.672Z,0.70
2018-08-18T22:24:23.606Z,0.80
2018-08-18T22:26:51.414Z,0.73
2018-08-18T22:29:22.903Z,0.80
2018-08-18T22:31:50.876Z,1.07
2018-08-18T22:34:18.549Z,0.70
2018-08-18T22:36:46.302Z,0.90
2018-08-18T22:39:14.033Z,0.73
2018-08-18T22:41:42.671Z,0.60
2018-08-18T22:44:10.358Z,0.80
2018-08-18T22:46:38.134Z,0.87
2018-08-18T22:49:05.966Z,0.80
2018-08-18T22:51:33.787Z,0.80
2018-08-18T22:54:01.502Z,0.67
2018-08-18T22:56:36.357Z,0.50
2018-08-18T22:59:06.787Z,0.70
2018-08-18T23:01:36.567Z,0.60
2018-08-18T23:04:13.455Z,0.77
2018-08-18T23:06:41.150Z,0.90
2018-08-18T23:09:08.814Z,0.60
2018-08-18T23:11:36.482Z,0.70
2018-08-18T23:14:04.160Z,0.57
2018-08-18T23:16:31.880Z,0.60
2018-08-18T23:18:59.523Z,0.93
2018-08-18T23:21:28.019Z,0.70
2018-08-18T23:23:55.824Z,0.80
2018-08-18T23:26:23.655Z,0.60
2018-08-18T23:28:51.309Z,0.67
2018-08-18T23:31:18.966Z,0.50
2018-08-18T23:33:46.633Z,0.80
2018-08-18T23:36:14.291Z,0.60
2018-08-18T23:38:48.341Z,0.60
2018-08-18T23:41:16.163Z,0.50
2018-08-18T23:43:43.870Z,0.67
2018-08-18T23:46:11.571Z,0.50
2018-08-18T23:48:39.251Z,0.47
2018-08-18T23:51:06.969Z,0.43
2018-08-18T23:53:34.639Z,0.70
2018-08-18T23:56:02.307Z,0.50
2018-08-18T23:58:30.317Z,0.77
